Time;durP1;ratioP1;P1;durP2;ratioP2;P2;SDS_P1;SDS_P2;PMS_P1;PMS_P2;Temp;Humidity;BMP_temperature;BMP_pressure;BME280_temperature;BME280_humidity;BME280_pressure;Samples;Min_cycle;Max_cycle;Signal;HPM_P1;HPM_P2
2023/11/08 00:01:07;;;;;;;1.70;0.70;;;8.50;99.90;;;;;;4118960;28;20215;-84
2023/11/08 00:03:11;;;;;;;1.73;0.80;;;8.50;99.90;;;;;;4116070;28;20259;-83
2023/11/08 00:05:13;;;;;;;2.10;0.53;;;8.50;99.90;;;;;;4112785;28;20249;-82
2023/11/08 00:07:15;;;;;;;1.00;0.63;;;8.50;99.90;;;;;;4115215;28;20219;-83
2023/11/08 00:09:17;;;;;;;1.70;0.50;;;8.50;99.90;;;;;;4117469;28;20292;-85
2023/11/08 00:11:23;;;;;;;1.10;0.70;;;8.50;99.90;;;;;;4119220;28;20215;-83
2023/11/08 00:13:26;;;;;;;2.30;0.70;;;8.50;99.90;;;;;;4117188;28;20223;-85
2023/11/08 00:15:29;;;;;;;1.90;0.70;;;8.80;99.90;;;;;;4118783;28;20257;-83
2023/11/08 00:17:30;;;;;;;0.73;0.50;;;8.40;99.90;;;;;;4126083;28;20633;-83
2023/11/08 00:19:32;;;;;;;0.50;0.50;;;8.40;99.90;;;;;;4124262;28;20202;-82
2023/11/08 00:21:34;;;;;;;0.87;0.57;;;8.40;99.90;;;;;;4119345;28;20240;-83
2023/11/08 00:23:37;;;;;;;1.27;0.50;;;8.50;99.90;;;;;;4114404;28;20238;-83
2023/11/08 00:25:38;;;;;;;1.10;0.53;;;8.50;99.90;;;;;;4118741;28;20241;-83
2023/11/08 00:27:40;;;;;;;0.87;0.60;;;8.40;99.90;;;;;;4108360;28;20223;-84
2023/11/08 00:29:42;;;;;;;1.10;0.50;;;8.40;99.90;;;;;;4109096;28;20238;-82
2023/11/08 00:31:44;;;;;;;1.53;0.50;;;8.30;99.90;;;;;;4118768;28;20559;-83
2023/11/08 00:33:47;;;;;;;0.60;0.40;;;8.40;99.90;;;;;;4110353;28;20266;-84
2023/11/08 00:35:48;;;;;;;2.10;0.43;;;8.40;99.90;;;;;;4110545;28;20251;-82
2023/11/08 00:37:51;;;;;;;0.80;0.60;;;8.40;99.90;;;;;;4110103;28;20202;-85
2023/11/08 00:39:52;;;;;;;2.00;0.57;;;8.30;99.90;;;;;;4115263;28;20202;-84
2023/11/08 00:41:54;;;;;;;1.13;0.40;;;8.40;99.90;;;;;;4117078;28;20591;-85
2023/11/08 00:43:56;;;;;;;2.70;0.70;;;8.50;99.90;;;;;;4111011;28;20224;-83
2023/11/08 00:46:02;;;;;;;1.50;0.57;;;8.40;99.90;;;;;;4110395;28;20262;-83
2023/11/08 00:48:05;;;;;;;1.17;0.70;;;8.80;99.90;;;;;;4114643;28;20224;-85
2023/11/08 00:50:08;;;;;;;2.03;1.23;;;8.40;99.90;;;;;;4111239;28;20227;-83
2023/11/08 00:52:11;;;;;;;3.07;0.60;;;8.30;99.90;;;;;;4120095;28;20297;-82
2023/11/08 00:54:13;;;;;;;0.70;0.57;;;8.60;99.90;;;;;;4114278;28;20239;-82
2023/11/08 00:56:16;;;;;;;0.67;0.40;;;8.30;99.90;;;;;;4116796;28;20214;-84
2023/11/08 00:58:18;;;;;;;2.80;0.60;;;8.40;99.90;;;;;;4116134;28;20213;-85
2023/11/08 01:00:21;;;;;;;1.47;0.80;;;8.50;99.90;;;;;;4114577;28;20206;-83
2023/11/08 01:02:24;;;;;;;2.10;0.80;;;8.30;99.90;;;;;;4111774;28;20218;-83
2023/11/08 01:04:25;;;;;;;1.67;0.77;;;8.30;99.90;;;;;;4115026;28;20601;-84
2023/11/08 01:06:28;;;;;;;4.10;1.47;;;8.30;99.90;;;;;;4117351;28;20211;-83
2023/11/08 01:08:29;;;;;;;3.40;1.00;;;8.30;99.90;;;;;;4113974;28;20205;-85
2023/11/08 01:10:34;;;;;;;2.60;0.73;;;8.30;99.90;;;;;;4109695;28;20649;-83
2023/11/08 01:12:36;;;;;;;1.13;0.70;;;9.30;99.90;;;;;;4107521;28;20207;-85
2023/11/08 01:14:38;;;;;;;1.97;0.83;;;8.60;99.90;;;;;;4107676;28;20274;-82
2023/11/08 01:16:40;;;;;;;5.20;1.00;;;8.30;99.90;;;;;;4113762;28;20203;-83
2023/11/08 01:18:44;;;;;;;3.43;0.60;;;8.30;99.90;;;;;;4111232;28;20210;-84
2023/11/08 01:20:47;;;;;;;2.53;0.60;;;8.30;99.90;;;;;;4106080;28;20203;-82
2023/11/08 01:22:50;;;;;;;2.60;0.90;;;8.40;99.90;;;;;;4113623;28;20269;-82
2023/11/08 01:24:52;;;;;;;4.27;0.70;;;8.40;99.90;;;;;;4110112;28;20302;-85
2023/11/08 01:26:54;;;;;;;4.23;0.63;;;8.40;99.90;;;;;;4117198;28;20199;-84
2023/11/08 01:28:56;;;;;;;3.60;0.70;;;8.40;99.90;;;;;;4110396;28;20216;-84
2023/11/08 01:30:57;;;;;;;1.63;0.50;;;8.30;99.90;;;;;;4111387;28;20235;-82
2023/11/08 01:32:59;;;;;;;2.03;0.73;;;8.40;99.90;;;;;;4124518;28;20202;-83
2023/11/08 01:35:04;;;;;;;4.13;1.20;;;8.40;99.90;;;;;;4112791;28;20313;-83
2023/11/08 01:37:06;;;;;;;2.13;0.90;;;8.40;99.90;;;;;;4106672;28;20236;-84
2023/11/08 01:39:08;;;;;;;1.10;0.60;;;8.40;99.90;;;;;;4115460;28;20219;-84
2023/11/08 01:41:10;;;;;;;1.60;0.80;;;8.30;99.90;;;;;;4110669;28;20207;-83
2023/11/08 01:43:27;;;;;;;2.03;0.90;;;8.30;99.90;;;;;;4114435;28;20705;-82
2023/11/08 01:45:29;;;;;;;14.17;0.90;;;8.30;99.90;;;;;;4118771;28;20691;-84
2023/11/08 01:47:33;;;;;;;2.73;0.60;;;8.30;99.90;;;;;;4120690;28;20273;-83
2023/11/08 01:49:36;;;;;;;1.67;0.67;;;8.30;99.90;;;;;;4117413;28;20219;-83
2023/11/08 01:51:38;;;;;;;4.03;0.80;;;8.20;99.90;;;;;;4117042;28;20219;-83
2023/11/08 01:53:41;;;;;;;1.77;0.80;;;8.20;99.90;;;;;;4118197;28;20215;-83
2023/11/08 01:55:43;;;;;;;2.37;0.77;;;8.20;99.90;;;;;;4114043;28;20281;-84
2023/11/08 01:57:46;;;;;;;2.03;0.73;;;8.20;99.90;;;;;;4118158;28;20242;-82
2023/11/08 01:59:49;;;;;;;1.80;1.00;;;8.20;99.90;;;;;;4113327;28;20214;-82
2023/11/08 02:01:52;;;;;;;1.33;0.63;;;8.10;99.90;;;;;;4120196;28;20222;-83
2023/11/08 02:03:55;;;;;;;2.77;0.67;;;8.10;99.90;;;;;;4115946;28;20237;-82
2023/11/08 02:05:58;;;;;;;3.00;0.90;;;8.10;99.90;;;;;;4118563;28;20294;-82
2023/11/08 02:08:02;;;;;;;2.37;0.90;;;8.10;99.90;;;;;;4113411;28;20259;-83
2023/11/08 02:10:04;;;;;;;3.57;0.90;;;8.10;99.90;;;;;;4117374;28;20223;-84
2023/11/08 02:12:07;;;;;;;3.50;0.90;;;8.10;99.90;;;;;;4117132;28;20211;-83
2023/11/08 02:14:10;;;;;;;3.20;0.67;;;8.00;99.90;;;;;;4116016;28;20241;-83
2023/11/08 02:16:12;;;;;;;2.77;0.87;;;8.10;99.90;;;;;;4120090;28;20215;-82
2023/11/08 02:18:14;;;;;;;1.30;0.87;;;8.10;99.90;;;;;;4112945;28;20214;-84
2023/11/08 02:20:17;;;;;;;2.33;0.77;;;8.10;99.90;;;;;;4119663;28;20217;-82
2023/11/08 02:22:19;;;;;;;3.43;0.73;;;8.10;99.90;;;;;;4111745;28;20229;-82
2023/11/08 02:24:23;;;;;;;2.40;0.60;;;8.10;99.90;;;;;;4120154;28;20229;-82
2023/11/08 02:26:25;;;;;;;2.20;0.90;;;8.30;99.90;;;;;;4122766;28;20213;-83
2023/11/08 02:28:27;;;;;;;2.73;0.87;;;8.10;99.90;;;;;;4117893;28;20685;-83
2023/11/08 02:30:29;;;;;;;2.20;0.80;;;8.20;99.90;;;;;;4116186;28;20256;-86
2023/11/08 02:32:33;;;;;;;2.83;1.00;;;8.20;99.90;;;;;;4112971;28;20286;-83
2023/11/08 02:34:35;;;;;;;2.77;0.90;;;8.20;99.90;;;;;;4112958;28;20242;-85
2023/11/08 02:36:36;;;;;;;4.00;0.90;;;8.20;99.90;;;;;;4112493;28;20211;-83
2023/11/08 02:38:38;;;;;;;2.07;0.63;;;8.30;99.90;;;;;;4110367;28;20730;-81
2023/11/08 02:40:42;;;;;;;3.37;1.00;;;8.30;99.90;;;;;;4121811;28;20210;-82
2023/11/08 02:42:45;;;;;;;4.60;0.87;;;8.30;99.90;;;;;;4116406;28;20546;-83
2023/11/08 02:44:47;;;;;;;2.93;0.77;;;8.30;99.90;;;;;;4117872;28;20231;-83
2023/11/08 02:46:51;;;;;;;3.60;0.90;;;8.30;99.90;;;;;;4122194;28;20202;-83
2023/11/08 02:48:56;;;;;;;3.00;0.90;;;8.30;99.90;;;;;;4113562;28;20235;-84
2023/11/08 02:50:59;;;;;;;2.60;1.00;;;8.30;99.90;;;;;;4119068;28;20254;-82
2023/11/08 02:53:01;;;;;;;3.27;0.90;;;8.30;99.90;;;;;;4117305;28;20280;-83
2023/11/08 02:55:04;;;;;;;5.97;2.03;;;8.40;99.90;;;;;;4107761;28;20326;-84
2023/11/08 02:57:07;;;;;;;2.43;0.70;;;8.30;99.90;;;;;;4116415;28;20227;-83
2023/11/08 02:59:10;;;;;;;4.00;0.90;;;8.30;99.90;;;;;;4115677;28;20283;-83
2023/11/08 03:01:12;;;;;;;3.60;0.93;;;8.30;99.90;;;;;;4122908;28;20679;-83
2023/11/08 03:03:14;;;;;;;3.33;0.90;;;8.40;99.90;;;;;;4109935;28;20738;-83
2023/11/08 03:05:21;;;;;;;2.67;0.63;;;8.30;99.90;;;;;;4109678;28;20721;-83
2023/11/08 03:07:23;;;;;;;6.80;0.93;;;8.30;99.90;;;;;;4113680;28;20203;-83
2023/11/08 03:09:25;;;;;;;2.77;1.20;;;8.40;99.90;;;;;;4115826;28;20220;-83
2023/11/08 03:11:27;;;;;;;3.30;1.20;;;8.40;99.90;;;;;;4111623;28;20231;-82
2023/11/08 03:13:32;;;;;;;3.00;0.60;;;8.40;99.90;;;;;;4112160;28;20256;-84
2023/11/08 03:15:34;;;;;;;2.70;0.90;;;8.40;99.90;;;;;;4112248;28;20808;-84
2023/11/08 03:17:36;;;;;;;1.70;0.60;;;8.50;99.90;;;;;;4111796;28;20209;-83
2023/11/08 03:19:37;;;;;;;4.73;0.77;;;8.50;99.90;;;;;;4117073;28;20266;-83
2023/11/08 03:21:39;;;;;;;2.93;0.80;;;8.50;99.90;;;;;;4110421;28;20663;-83
2023/11/08 03:23:41;;;;;;;2.13;0.70;;;8.50;99.90;;;;;;4115620;28;20212;-83
2023/11/08 03:25:42;;;;;;;4.10;0.87;;;8.40;99.90;;;;;;4112397;28;20698;-83
2023/11/08 03:27:44;;;;;;;4.77;1.00;;;8.50;99.90;;;;;;4110932;28;20205;-82
2023/11/08 03:29:47;;;;;;;1.20;0.50;;;8.50;99.90;;;;;;4109843;28;20222;-82
2023/11/08 03:31:48;;;;;;;2.90;0.63;;;8.50;99.90;;;;;;4107936;28;20239;-83
2023/11/08 03:33:50;;;;;;;4.13;0.80;;;8.50;99.90;;;;;;4111689;28;20616;-83
2023/11/08 03:35:52;;;;;;;2.33;0.60;;;8.70;99.90;;;;;;4117380;28;20748;-83
2023/11/08 03:37:55;;;;;;;2.30;0.90;;;8.50;99.90;;;;;;4113627;28;20784;-83
2023/11/08 03:39:58;;;;;;;1.83;0.70;;;8.50;99.90;;;;;;4106154;28;20235;-83
2023/11/08 03:42:00;;;;;;;2.93;0.73;;;8.50;99.90;;;;;;4110863;28;20200;-82
2023/11/08 03:44:01;;;;;;;2.83;0.80;;;8.50;99.90;;;;;;4120704;28;20219;-83
2023/11/08 03:46:05;;;;;;;3.70;0.60;;;8.40;99.90;;;;;;4112850;28;20263;-83
2023/11/08 03:48:06;;;;;;;3.70;1.00;;;8.40;99.90;;;;;;4119581;28;20209;-83
2023/11/08 03:50:09;;;;;;;1.63;0.70;;;8.20;99.90;;;;;;4122933;28;20765;-82
2023/11/08 03:52:11;;;;;;;1.63;0.40;;;8.40;99.90;;;;;;4113370;28;20238;-84
2023/11/08 03:54:12;;;;;;;0.90;0.60;;;8.40;99.90;;;;;;4119484;28;20243;-84
2023/11/08 03:56:13;;;;;;;1.00;0.47;;;8.30;99.90;;;;;;4113636;28;20206;-81
2023/11/08 03:58:16;;;;;;;0.50;0.50;;;8.40;99.90;;;;;;4115732;28;20246;-82
2023/11/08 04:00:18;;;;;;;3.03;0.50;;;8.30;99.90;;;;;;4111938;28;20651;-83
2023/11/08 04:02:22;;;;;;;2.00;0.60;;;8.30;99.90;;;;;;4118781;28;20209;-82
2023/11/08 04:04:23;;;;;;;2.60;0.77;;;8.30;99.90;;;;;;4121990;28;20237;-82
2023/11/08 04:06:25;;;;;;;2.23;0.60;;;8.20;99.90;;;;;;4119081;28;20210;-82
2023/11/08 04:08:27;;;;;;;1.40;0.70;;;8.60;99.90;;;;;;4113700;28;20214;-82
2023/11/08 04:10:29;;;;;;;2.10;0.50;;;8.20;99.90;;;;;;4107952;28;20218;-85
2023/11/08 04:12:31;;;;;;;1.30;0.60;;;8.20;99.90;;;;;;4109639;28;20207;-83
2023/11/08 04:14:32;;;;;;;1.93;0.50;;;8.60;99.90;;;;;;4110647;28;20233;-84
2023/11/08 04:16:38;;;;;;;1.60;0.57;;;8.30;99.90;;;;;;4113237;28;20270;-82
2023/11/08 04:18:42;;;;;;;2.83;0.60;;;8.30;99.90;;;;;;4113372;28;20267;-82
2023/11/08 04:20:44;;;;;;;1.63;0.67;;;8.30;99.90;;;;;;4107803;28;20261;-83
2023/11/08 04:22:46;;;;;;;1.30;0.80;;;8.30;99.90;;;;;;4111239;28;20213;-82
2023/11/08 04:24:48;;;;;;;0.93;0.50;;;8.30;99.90;;;;;;4109618;28;20226;-83
2023/11/08 04:26:49;;;;;;;2.13;0.63;;;8.30;99.90;;;;;;4115008;28;20266;-83
2023/11/08 04:28:55;;;;;;;1.53;0.37;;;8.30;99.90;;;;;;4112083;28;20214;-82
2023/11/08 04:30:58;;;;;;;0.70;0.37;;;8.30;99.90;;;;;;4108082;28;20754;-85
2023/11/08 04:33:00;;;;;;;0.97;0.50;;;8.30;99.90;;;;;;4109493;28;20585;-83
2023/11/08 04:35:03;;;;;;;0.70;0.53;;;8.30;99.90;;;;;;4112474;28;20241;-84
2023/11/08 04:37:08;;;;;;;0.70;0.50;;;8.30;99.90;;;;;;4103219;28;20222;-83
2023/11/08 04:39:13;;;;;;;1.20;0.70;;;8.30;99.90;;;;;;4112885;28;20222;-83
2023/11/08 04:41:14;;;;;;;1.03;0.50;;;8.30;99.90;;;;;;4107152;28;20685;-83
2023/11/08 04:43:16;;;;;;;0.80;0.60;;;8.30;99.90;;;;;;4106086;28;20211;-83
2023/11/08 04:45:18;;;;;;;0.73;0.50;;;8.70;99.90;;;;;;4112225;28;20235;-83
2023/11/08 04:47:21;;;;;;;3.17;0.60;;;8.30;99.90;;;;;;4110227;28;20221;-83
2023/11/08 04:49:23;;;;;;;2.40;0.73;;;8.30;99.90;;;;;;4108805;28;20206;-83
2023/11/08 04:51:26;;;;;;;2.97;0.60;;;8.20;99.90;;;;;;4110166;28;20280;-83
2023/11/08 04:53:28;;;;;;;0.93;0.60;;;8.30;99.90;;;;;;4109437;28;20226;-83
2023/11/08 04:55:30;;;;;;;3.57;0.70;;;8.50;99.90;;;;;;4113762;28;20230;-81
2023/11/08 04:57:32;;;;;;;2.30;0.50;;;8.30;99.90;;;;;;4114932;28;20216;-80
2023/11/08 04:59:34;;;;;;;2.23;0.70;;;8.30;99.90;;;;;;4110627;28;20207;-80
2023/11/08 05:01:37;;;;;;;3.07;0.70;;;8.30;99.90;;;;;;4110830;28;20200;-77
2023/11/08 05:03:39;;;;;;;1.80;0.77;;;8.20;99.90;;;;;;4107717;28;20218;-80
2023/11/08 05:05:44;;;;;;;2.57;0.60;;;8.20;99.90;;;;;;4109369;28;20942;-81
2023/11/08 05:07:47;;;;;;;2.23;0.70;;;8.20;99.90;;;;;;4114838;28;20707;-80
2023/11/08 05:09:50;;;;;;;4.27;1.10;;;8.50;99.90;;;;;;4115433;28;20205;-81
2023/11/08 05:11:52;;;;;;;2.13;0.83;;;8.10;99.90;;;;;;4114879;28;20229;-80
2023/11/08 05:13:55;;;;;;;4.60;0.90;;;8.10;99.90;;;;;;4115109;28;20205;-80
2023/11/08 05:15:57;;;;;;;2.77;0.70;;;8.10;99.90;;;;;;4115215;28;20234;-83
2023/11/08 05:17:59;;;;;;;0.90;0.53;;;8.10;99.90;;;;;;4115020;28;20218;-81
2023/11/08 05:20:01;;;;;;;0.70;0.60;;;8.10;99.90;;;;;;4111780;28;20197;-84
2023/11/08 05:22:03;;;;;;;1.10;0.50;;;8.10;99.90;;;;;;4120917;28;20799;-84
2023/11/08 05:24:07;;;;;;;1.37;0.70;;;8.30;99.90;;;;;;4109567;28;20210;-84
2023/11/08 05:26:09;;;;;;;2.63;0.67;;;8.10;99.90;;;;;;4120059;28;20212;-84
2023/11/08 05:28:11;;;;;;;4.23;1.03;;;8.10;99.90;;;;;;4110506;28;20202;-84
2023/11/08 05:30:15;;;;;;;1.30;0.60;;;8.10;99.90;;;;;;4122023;28;20256;-84
2023/11/08 05:32:20;;;;;;;2.03;0.80;;;8.10;99.90;;;;;;4113717;28;20226;-84
2023/11/08 05:34:22;;;;;;;0.93;0.57;;;8.30;99.90;;;;;;4113691;28;20252;-79
2023/11/08 05:36:24;;;;;;;1.57;0.77;;;8.10;99.90;;;;;;4106903;28;20211;-79
2023/11/08 05:38:26;;;;;;;1.73;0.50;;;8.10;99.90;;;;;;4111756;28;20260;-81
2023/11/08 05:40:30;;;;;;;1.87;0.87;;;8.10;99.90;;;;;;4109879;28;20210;-79
2023/11/08 05:42:31;;;;;;;2.60;0.87;;;8.10;99.90;;;;;;4106011;28;20210;-79
2023/11/08 05:44:33;;;;;;;2.33;1.20;;;8.10;99.90;;;;;;4111985;28;20306;-82
2023/11/08 05:46:35;;;;;;;1.60;0.50;;;8.00;99.90;;;;;;4111616;28;20681;-82
2023/11/08 05:48:37;;;;;;;1.70;0.67;;;8.10;99.90;;;;;;4114329;28;20203;-81
2023/11/08 05:50:43;;;;;;;2.40;0.70;;;8.00;99.90;;;;;;4107467;28;20274;-79
2023/11/08 05:52:45;;;;;;;1.33;0.50;;;8.00;99.90;;;;;;4103471;28;20227;-81
2023/11/08 05:54:46;;;;;;;2.53;0.57;;;8.10;99.90;;;;;;4115737;28;20700;-82
2023/11/08 05:56:52;;;;;;;1.33;0.50;;;8.00;99.90;;;;;;4117664;28;20215;-82
2023/11/08 05:58:54;;;;;;;2.63;0.80;;;8.20;99.90;;;;;;4118150;28;20301;-82
2023/11/08 06:00:57;;;;;;;0.80;0.57;;;8.00;99.90;;;;;;4123433;28;20678;-82
2023/11/08 06:02:59;;;;;;;3.73;0.80;;;8.00;99.90;;;;;;4112801;28;20230;-82
2023/11/08 06:05:01;;;;;;;1.80;1.03;;;8.00;99.90;;;;;;4112376;28;20785;-82
2023/11/08 06:07:03;;;;;;;1.97;0.60;;;8.10;99.90;;;;;;4111690;28;20216;-79
2023/11/08 06:09:06;;;;;;;1.60;0.70;;;8.10;99.90;;;;;;4114430;28;20262;-82
2023/11/08 06:11:08;;;;;;;1.63;0.60;;;8.10;99.90;;;;;;4114791;28;20302;-80
2023/11/08 06:13:12;;;;;;;2.30;0.60;;;8.10;99.90;;;;;;4111440;28;20256;-80
2023/11/08 06:15:16;;;;;;;1.67;0.43;;;8.10;99.90;;;;;;4112674;28;20244;-81
2023/11/08 06:17:16;;;;;;;2.90;0.70;;;8.10;99.90;;;;;;4117941;28;20226;-81
2023/11/08 06:19:19;;;;;;;2.30;0.60;;;8.10;99.90;;;;;;4114797;28;20233;-81
2023/11/08 06:21:21;;;;;;;1.50;0.63;;;8.10;99.90;;;;;;4110518;28;20213;-80
2023/11/08 06:23:23;;;;;;;0.80;0.50;;;8.10;99.90;;;;;;4128199;28;20216;-82
2023/11/08 06:25:25;;;;;;;2.40;0.50;;;8.20;99.90;;;;;;4103095;28;20280;-80
2023/11/08 06:27:26;;;;;;;2.50;0.70;;;8.20;99.90;;;;;;4116406;28;20234;-82
2023/11/08 06:29:36;;;;;;;0.93;0.60;;;8.20;99.90;;;;;;4119795;28;20281;-81
2023/11/08 06:31:40;;;;;;;2.30;0.70;;;8.20;99.90;;;;;;4116793;28;20221;-80
2023/11/08 06:33:42;;;;;;;1.97;0.73;;;8.30;99.90;;;;;;4103401;28;20213;-81
2023/11/08 06:35:44;;;;;;;1.53;0.70;;;8.40;99.90;;;;;;4118083;28;20329;-82
2023/11/08 06:37:46;;;;;;;2.70;1.17;;;8.30;99.90;;;;;;4119636;28;20212;-82
2023/11/08 06:39:47;;;;;;;5.13;1.97;;;8.30;99.90;;;;;;4121964;28;20255;-81
2023/11/08 06:41:50;;;;;;;1.53;0.80;;;8.30;99.90;;;;;;4124258;28;20262;-80
2023/11/08 06:43:52;;;;;;;3.83;0.67;;;8.40;99.90;;;;;;4118174;28;20301;-82
2023/11/08 06:45:55;;;;;;;5.63;0.90;;;8.40;99.90;;;;;;4112145;28;20242;-82
2023/11/08 06:47:58;;;;;;;2.40;0.50;;;8.40;99.90;;;;;;4127280;28;20598;-80
2023/11/08 06:50:00;;;;;;;1.87;0.60;;;8.70;99.90;;;;;;4135489;28;20217;-82
2023/11/08 06:52:01;;;;;;;2.10;0.77;;;8.50;99.90;;;;;;4127580;28;20254;-81
2023/11/08 06:54:03;;;;;;;2.10;1.00;;;8.60;99.90;;;;;;4127614;28;20210;-80
2023/11/08 06:56:07;;;;;;;2.13;0.87;;;8.60;99.90;;;;;;4141611;28;20203;-81
2023/11/08 06:58:09;;;;;;;2.47;0.70;;;8.60;99.90;;;;;;4132639;28;20220;-83
2023/11/08 07:00:14;;;;;;;1.70;0.80;;;8.90;99.90;;;;;;4114439;28;20275;-82
2023/11/08 07:02:18;;;;;;;2.20;0.70;;;8.70;99.90;;;;;;4125093;28;20206;-80
2023/11/08 07:04:20;;;;;;;2.63;0.50;;;8.70;99.90;;;;;;4132942;28;20927;-80
2023/11/08 07:06:22;;;;;;;1.40;0.60;;;8.80;99.90;;;;;;4131072;28;20271;-82
2023/11/08 07:08:24;;;;;;;1.50;0.50;;;8.80;99.90;;;;;;4125540;28;20214;-80
2023/11/08 07:10:26;;;;;;;1.33;0.70;;;8.90;99.90;;;;;;4125038;28;20355;-80
2023/11/08 07:12:28;;;;;;;1.80;0.70;;;8.90;99.90;;;;;;4126737;28;20225;-83
2023/11/08 07:14:30;;;;;;;3.27;0.67;;;8.90;99.90;;;;;;4121996;28;20247;-79
2023/11/08 07:16:32;;;;;;;2.60;0.80;;;9.00;99.90;;;;;;4117565;28;20756;-86
2023/11/08 07:18:36;;;;;;;1.17;0.63;;;9.00;99.90;;;;;;4119829;28;20219;-79
2023/11/08 07:20:38;;;;;;;2.80;1.03;;;9.00;99.90;;;;;;4139757;28;20207;-81
2023/11/08 07:22:40;;;;;;;1.57;0.87;;;8.90;99.90;;;;;;4142362;28;20200;-80
2023/11/08 07:24:42;;;;;;;1.70;0.60;;;9.00;99.90;;;;;;4130689;28;20277;-83
2023/11/08 07:26:46;;;;;;;2.07;0.90;;;9.00;99.90;;;;;;4127765;28;20199;-81
2023/11/08 07:28:48;;;;;;;3.07;0.83;;;9.00;99.90;;;;;;4129139;28;20215;-81
2023/11/08 07:30:50;;;;;;;3.23;0.80;;;9.10;99.90;;;;;;4129576;28;20621;-80
2023/11/08 07:32:52;;;;;;;4.03;1.37;;;9.00;99.90;;;;;;4128745;28;20954;-80
2023/11/08 07:34:55;;;;;;;2.33;0.70;;;9.20;99.90;;;;;;4133457;28;20319;-80
2023/11/08 07:36:57;;;;;;;3.50;0.73;;;9.10;99.90;;;;;;4128298;28;20214;-82
2023/11/08 07:39:01;;;;;;;2.90;0.80;;;9.10;99.90;;;;;;4129516;28;20207;-81
2023/11/08 07:41:03;;;;;;;3.90;0.97;;;9.10;99.90;;;;;;4105839;28;20223;-81
2023/11/08 07:43:05;;;;;;;2.00;0.60;;;9.20;99.90;;;;;;4133928;28;20199;-81
2023/11/08 07:45:07;;;;;;;1.87;0.70;;;9.20;99.90;;;;;;4135351;28;20281;-81
2023/11/08 07:47:09;;;;;;;1.03;0.80;;;9.20;99.90;;;;;;4117123;28;21138;-84
2023/11/08 07:49:11;;;;;;;3.10;0.70;;;9.20;99.90;;;;;;4113709;28;20261;-84
2023/11/08 07:51:14;;;;;;;3.37;0.90;;;9.30;99.90;;;;;;4115021;28;20212;-83
2023/11/08 07:53:16;;;;;;;4.37;0.90;;;9.30;99.90;;;;;;4105102;28;20276;-81
2023/11/08 07:55:18;;;;;;;4.77;1.10;;;9.40;99.90;;;;;;4116721;28;20295;-81
2023/11/08 07:57:19;;;;;;;3.03;1.00;;;9.30;99.90;;;;;;4114411;28;20211;-81
2023/11/08 07:59:22;;;;;;;4.33;0.93;;;9.40;99.90;;;;;;4109182;28;20634;-80
2023/11/08 08:01:23;;;;;;;3.60;1.23;;;9.20;99.90;;;;;;4114206;28;20215;-80
2023/11/08 08:03:25;;;;;;;4.83;1.40;;;9.30;99.90;;;;;;4111828;28;20223;-80
2023/11/08 08:05:27;;;;;;;2.73;0.90;;;9.40;99.90;;;;;;4111261;28;20236;-80
2023/11/08 08:07:30;;;;;;;2.20;0.80;;;9.30;99.90;;;;;;4120585;28;20219;-80
2023/11/08 08:09:32;;;;;;;2.77;0.63;;;9.30;99.90;;;;;;4110273;28;20269;-81
2023/11/08 08:11:35;;;;;;;3.93;1.20;;;9.30;99.90;;;;;;4100655;28;20217;-80
2023/11/08 08:13:37;;;;;;;3.53;1.20;;;9.30;99.90;;;;;;4125745;28;20726;-80
2023/11/08 08:15:40;;;;;;;5.40;1.10;;;9.30;99.90;;;;;;4129444;28;20663;-81
2023/11/08 08:17:45;;;;;;;2.40;1.00;;;9.30;99.90;;;;;;4117798;28;20739;-83
2023/11/08 08:19:47;;;;;;;2.83;0.90;;;9.30;99.90;;;;;;4114599;28;20232;-83
2023/11/08 08:21:51;;;;;;;1.63;0.90;;;9.40;99.90;;;;;;4112702;28;20211;-82
2023/11/08 08:23:55;;;;;;;2.43;0.80;;;9.40;99.90;;;;;;4117986;28;20348;-85
2023/11/08 08:25:57;;;;;;;4.50;1.10;;;9.40;99.90;;;;;;4115600;28;20200;-83
2023/11/08 08:27:59;;;;;;;2.17;1.00;;;9.70;99.90;;;;;;4113443;28;20208;-84
2023/11/08 08:30:00;;;;;;;5.10;1.13;;;9.40;99.90;;;;;;4110103;28;20299;-84
2023/11/08 08:32:03;;;;;;;6.97;2.30;;;9.40;99.90;;;;;;4116034;28;21811;-82
2023/11/08 08:34:07;;;;;;;4.10;1.30;;;9.50;99.90;;;;;;4110466;28;20554;-84
2023/11/08 08:36:09;;;;;;;4.43;1.50;;;9.50;99.90;;;;;;4117429;28;20242;-84
2023/11/08 08:38:11;;;;;;;1.67;0.93;;;9.70;99.90;;;;;;4109060;28;20228;-83
2023/11/08 08:40:15;;;;;;;3.23;1.10;;;9.90;99.90;;;;;;4112632;28;20223;-83
2023/11/08 08:42:18;;;;;;;1.73;0.80;;;10.00;99.90;;;;;;4111527;28;20230;-82
2023/11/08 08:44:19;;;;;;;3.77;1.00;;;9.70;99.90;;;;;;4108565;28;20326;-83
2023/11/08 08:46:21;;;;;;;3.43;0.97;;;9.80;99.90;;;;;;4108907;28;20214;-83
2023/11/08 08:48:23;;;;;;;3.10;1.40;;;9.90;99.90;;;;;;4112078;28;20269;-82
2023/11/08 08:50:25;;;;;;;4.23;1.30;;;9.90;99.90;;;;;;4115410;28;20254;-83
2023/11/08 08:52:29;;;;;;;3.07;0.87;;;10.20;99.90;;;;;;4108768;28;20224;-84
2023/11/08 08:54:31;;;;;;;1.63;0.63;;;9.90;99.90;;;;;;4111418;28;20236;-85
2023/11/08 08:56:35;;;;;;;3.63;0.87;;;9.90;99.90;;;;;;4108478;28;20264;-85
2023/11/08 08:58:37;;;;;;;2.17;0.90;;;10.00;99.90;;;;;;4105442;28;20228;-85
2023/11/08 09:00:39;;;;;;;4.73;1.20;;;10.00;99.90;;;;;;4115711;28;20204;-85
2023/11/08 09:02:41;;;;;;;6.33;1.60;;;10.00;99.90;;;;;;4112910;28;20236;-85
2023/11/08 09:04:43;;;;;;;8.57;1.90;;;9.90;99.90;;;;;;4109523;28;20237;-85
2023/11/08 09:06:45;;;;;;;4.17;1.00;;;9.90;99.90;;;;;;4110454;28;20696;-84
2023/11/08 09:08:47;;;;;;;2.40;1.03;;;10.00;99.90;;;;;;4110267;28;20215;-85
2023/11/08 09:10:49;;;;;;;2.83;0.97;;;9.90;99.90;;;;;;4110891;28;20212;-85
2023/11/08 09:12:53;;;;;;;3.67;1.53;;;10.10;99.90;;;;;;4114755;28;20911;-85
2023/11/08 09:14:55;;;;;;;3.30;1.30;;;10.20;99.90;;;;;;4107907;28;20245;-84
2023/11/08 09:16:58;;;;;;;6.07;0.80;;;10.20;99.90;;;;;;4111175;28;20209;-85
2023/11/08 09:19:00;;;;;;;2.73;1.20;;;10.30;99.90;;;;;;4104699;28;20205;-84
2023/11/08 09:21:03;;;;;;;1.73;0.60;;;10.40;99.90;;;;;;4113845;28;20633;-85
2023/11/08 09:23:08;;;;;;;2.50;0.77;;;10.30;99.90;;;;;;4112821;28;20225;-85
2023/11/08 09:25:10;;;;;;;3.50;1.43;;;10.40;99.90;;;;;;4105763;28;20232;-85
2023/11/08 09:27:12;;;;;;;2.00;0.80;;;10.30;99.90;;;;;;4109507;28;20214;-84
2023/11/08 09:29:18;;;;;;;2.30;0.90;;;10.40;99.90;;;;;;4113794;28;20209;-85
2023/11/08 09:31:20;;;;;;;6.87;0.90;;;10.40;99.90;;;;;;4105419;28;20236;-84
2023/11/08 09:33:22;;;;;;;1.17;0.60;;;10.40;99.90;;;;;;4108465;28;20646;-84
2023/11/08 09:35:25;;;;;;;3.47;1.33;;;10.50;99.90;;;;;;4106844;28;20259;-84
2023/11/08 09:37:27;;;;;;;1.27;0.80;;;10.50;99.90;;;;;;4113935;28;20227;-84
2023/11/08 09:39:31;;;;;;;2.90;0.80;;;10.60;99.90;;;;;;4109148;28;20204;-85
2023/11/08 09:41:32;;;;;;;1.43;0.93;;;10.60;99.90;;;;;;4104851;28;20216;-85
2023/11/08 09:43:39;;;;;;;3.20;0.70;;;10.60;99.90;;;;;;4113523;28;20267;-85
2023/11/08 09:45:43;;;;;;;1.33;0.70;;;10.60;99.90;;;;;;4108741;28;20596;-85
2023/11/08 09:47:47;;;;;;;1.83;0.70;;;10.50;99.90;;;;;;4103692;28;20214;-84
2023/11/08 09:49:53;;;;;;;3.97;1.00;;;10.50;99.90;;;;;;4101832;28;20851;-85
2023/11/08 09:51:56;;;;;;;3.90;0.80;;;10.90;99.90;;;;;;4109284;28;20623;-85
2023/11/08 09:54:03;;;;;;;4.50;0.77;;;10.50;99.90;;;;;;4110720;28;20230;-85
2023/11/08 09:56:06;;;;;;;2.10;0.60;;;10.60;99.90;;;;;;4109735;28;20293;-85
2023/11/08 09:58:09;;;;;;;3.63;0.60;;;10.60;99.90;;;;;;4123466;28;20214;-85
2023/11/08 10:00:12;;;;;;;3.67;0.70;;;10.70;99.90;;;;;;4112046;28;20241;-84
2023/11/08 10:02:18;;;;;;;1.23;0.60;;;10.80;99.90;;;;;;4119298;28;20288;-84
2023/11/08 10:04:23;;;;;;;4.83;0.70;;;10.90;99.90;;;;;;4113963;28;20250;-84
2023/11/08 10:06:27;;;;;;;2.63;0.80;;;10.90;99.90;;;;;;4123700;28;20215;-85
2023/11/08 10:08:29;;;;;;;3.93;1.13;;;10.90;99.90;;;;;;4125388;28;20288;-85
2023/11/08 10:10:31;;;;;;;1.97;0.53;;;10.90;99.90;;;;;;4119162;28;20226;-86
2023/11/08 10:12:33;;;;;;;5.03;0.90;;;10.90;99.90;;;;;;4112235;28;20268;-84
2023/11/08 10:14:37;;;;;;;2.57;0.77;;;10.80;99.90;;;;;;4121163;28;20550;-85
2023/11/08 10:16:46;;;;;;;3.47;0.93;;;11.00;99.90;;;;;;4115369;28;20201;-85
2023/11/08 10:18:58;;;;;;;3.77;1.07;;;11.00;99.90;;;;;;4115788;28;20213;-85
2023/11/08 10:21:06;;;;;;;4.00;0.90;;;11.10;99.90;;;;;;4105808;28;20208;-83
2023/11/08 10:23:08;;;;;;;2.10;0.67;;;11.20;99.90;;;;;;4109969;28;20229;-84
2023/11/08 10:25:12;;;;;;;5.10;0.80;;;11.30;99.90;;;;;;4118845;28;20602;-84
2023/11/08 10:27:16;;;;;;;3.77;0.80;;;11.40;99.90;;;;;;4109931;28;20218;-85
2023/11/08 10:29:19;;;;;;;1.27;0.70;;;11.40;99.90;;;;;;4113885;28;20278;-84
2023/11/08 10:31:34;;;;;;;5.00;0.83;;;11.40;99.90;;;;;;4123860;28;20209;-83
2023/11/08 10:33:36;;;;;;;2.10;0.90;;;11.40;99.90;;;;;;4123263;28;20223;-84
2023/11/08 10:35:41;;;;;;;3.23;0.90;;;11.50;99.90;;;;;;4116529;28;20638;-84
2023/11/08 10:37:43;;;;;;;4.17;0.90;;;11.50;99.90;;;;;;4121013;28;20205;-84
2023/11/08 10:39:46;;;;;;;1.97;0.70;;;11.60;99.90;;;;;;4121255;28;20214;-84
2023/11/08 10:41:48;;;;;;;1.67;0.60;;;11.50;99.90;;;;;;4111829;28;20292;-83
2023/11/08 10:44:06;;;;;;;2.97;0.80;;;11.40;99.90;;;;;;4107021;28;20214;-84
2023/11/08 10:46:08;;;;;;;3.43;0.80;;;11.40;99.90;;;;;;4116743;28;20643;-84